createdAt,value
2019-01-04T00:02:54.384Z,30.72
2019-01-04T00:08:39.473Z,28.32
2019-01-04T00:43:00.857Z,40.92
2019-01-04T00:45:34.154Z,38.83
2019-01-04T01:06:34.577Z,42.58
2019-01-04T01:09:23.909Z,38.78
2019-01-04T01:12:00.559Z,45.83
2019-01-04T01:14:33.102Z,40.45
2019-01-04T01:29:04.937Z,41.20
2019-01-04T01:37:59.275Z,40.17
2019-01-04T01:43:31.077Z,40.73
2019-01-04T01:49:24.729Z,36.60
2019-01-04T01:55:33.160Z,31.02
2019-01-04T02:02:59.563Z,32.88
2019-01-04T02:10:52.922Z,31.17
2019-01-04T02:16:53.159Z,25.40
2019-01-04T02:22:18.372Z,32.00
2019-01-04T02:24:48.175Z,33.10
2019-01-04T02:27:17.953Z,38.00
2019-01-04T02:36:44.371Z,35.15
2019-01-04T02:39:15.368Z,40.12
2019-01-04T02:41:45.837Z,34.60
2019-01-04T02:44:17.750Z,34.38
2019-01-04T02:46:48.976Z,34.03
2019-01-04T02:53:00.782Z,36.65
2019-01-04T02:55:17.462Z,35.40
2019-01-04T03:00:56.818Z,29.23
2019-01-04T03:03:33.724Z,30.45
2019-01-04T03:06:09.133Z,25.20
2019-01-04T03:14:26.827Z,36.83
2019-01-04T03:20:17.274Z,41.48
2019-01-04T03:22:47.648Z,33.95
2019-01-04T03:25:36.294Z,32.65
2019-01-04T03:28:05.606Z,33.30
2019-01-04T03:30:34.731Z,35.08
2019-01-04T03:33:25.793Z,32.55
2019-01-04T03:35:56.754Z,33.80
2019-01-04T03:38:27.304Z,28.35
2019-01-04T03:40:58.217Z,24.57
2019-01-04T03:43:32.148Z,24.43
2019-01-04T03:46:01.739Z,28.38
2019-01-04T03:48:33.992Z,25.85
2019-01-04T03:51:06.174Z,29.70
2019-01-04T03:53:41.846Z,27.17
2019-01-04T03:56:12.541Z,28.50
2019-01-04T03:58:43.144Z,22.07
2019-01-04T04:01:16.019Z,27.73
2019-01-04T04:04:06.035Z,24.63
2019-01-04T04:09:48.304Z,27.05
2019-01-04T04:15:52.632Z,26.73
2019-01-04T04:18:34.491Z,26.62
2019-01-04T04:21:49.032Z,30.05
2019-01-04T04:24:33.018Z,24.35
2019-01-04T04:27:03.291Z,26.42
2019-01-04T04:29:37.395Z,26.37
2019-01-04T04:32:07.495Z,27.55
2019-01-04T04:34:40.238Z,20.97
2019-01-04T04:37:09.883Z,23.73
2019-01-04T04:39:45.587Z,19.77
2019-01-04T04:42:18.094Z,22.03
2019-01-04T04:44:53.742Z,18.90
2019-01-04T04:47:24.974Z,15.85
2019-01-04T04:49:55.341Z,18.98
2019-01-04T04:55:34.884Z,20.55
2019-01-04T04:58:27.042Z,22.82
2019-01-04T05:00:48.863Z,19.23
2019-01-04T05:11:55.061Z,22.32
2019-01-04T05:14:27.508Z,21.12
2019-01-04T05:16:58.727Z,22.77
2019-01-04T05:19:30.511Z,21.27
2019-01-04T05:22:06.835Z,26.52
2019-01-04T05:24:37.981Z,22.30
2019-01-04T05:27:14.209Z,23.22
2019-01-04T05:29:49.014Z,21.33
2019-01-04T05:32:18.038Z,21.68
2019-01-04T05:34:50.413Z,23.47
2019-01-04T05:40:25.043Z,23.65
2019-01-04T05:43:02.509Z,23.80
2019-01-04T05:48:34.619Z,25.12
2019-01-04T05:51:08.037Z,24.02
2019-01-04T05:53:36.965Z,19.20
2019-01-04T05:56:16.028Z,19.00
2019-01-04T05:58:45.414Z,24.15
2019-01-04T06:01:20.266Z,25.57
2019-01-04T06:03:50.698Z,23.62
2019-01-04T06:06:20.069Z,22.95
2019-01-04T06:08:52.898Z,23.38
2019-01-04T06:11:23.534Z,23.50
2019-01-04T06:13:57.428Z,19.73
2019-01-04T06:16:27.769Z,21.97
2019-01-04T06:18:59.164Z,20.30
2019-01-04T06:27:14.315Z,22.07
2019-01-04T06:29:53.306Z,24.47
2019-01-04T06:32:28.889Z,17.62
2019-01-04T06:35:07.469Z,25.77
2019-01-04T06:37:53.311Z,26.90
2019-01-04T06:44:46.445Z,23.75
2019-01-04T06:46:16.064Z,21.97
2019-01-04T06:48:58.202Z,23.02
2019-01-04T06:51:34.149Z,23.60
2019-01-04T06:54:16.631Z,27.02
2019-01-04T06:56:48.428Z,28.98
2019-01-04T06:59:20.245Z,25.77
2019-01-04T07:01:56.441Z,22.80
2019-01-04T07:04:25.777Z,20.43
2019-01-04T07:06:59.466Z,22.35
2019-01-04T07:09:40.926Z,22.85
2019-01-04T07:12:11.256Z,28.27
2019-01-04T07:14:44.565Z,25.10
2019-01-04T07:17:15.823Z,20.63
2019-01-04T07:19:46.516Z,21.40
2019-01-04T07:22:19.674Z,20.27
2019-01-04T07:24:53.081Z,25.72
2019-01-04T07:27:23.097Z,23.77
2019-01-04T07:29:54.884Z,23.25
2019-01-04T07:32:24.041Z,28.15
2019-01-04T07:35:01.071Z,21.50
2019-01-04T07:37:32.421Z,17.07
2019-01-04T07:40:03.850Z,19.77
2019-01-04T07:42:33.604Z,20.77
2019-01-04T07:45:05.220Z,20.05
2019-01-04T07:47:35.029Z,14.07
2019-01-04T07:50:04.977Z,14.63
2019-01-04T07:52:40.211Z,16.97
2019-01-04T07:55:06.993Z,17.17
2019-01-04T07:57:40.039Z,16.17
2019-01-04T08:00:21.069Z,16.42
2019-01-04T08:02:51.619Z,17.98
2019-01-04T08:05:30.944Z,15.85
2019-01-04T08:08:05.070Z,14.33
2019-01-04T08:10:35.507Z,15.23
2019-01-04T08:13:05.704Z,15.10
2019-01-04T08:15:41.793Z,12.23
2019-01-04T08:18:15.054Z,16.12
2019-01-04T08:20:44.371Z,16.60
2019-01-04T08:23:25.972Z,15.70
2019-01-04T08:25:57.609Z,14.37
2019-01-04T08:28:34.136Z,13.38
2019-01-04T08:31:14.494Z,14.90
2019-01-04T08:33:48.011Z,9.93
2019-01-04T08:36:18.135Z,11.65
2019-01-04T08:38:46.811Z,11.70
2019-01-04T08:41:18.421Z,10.37
2019-01-04T08:43:50.095Z,8.80
2019-01-04T08:46:30.513Z,11.70
2019-01-04T08:49:01.384Z,9.37
2019-01-04T08:51:31.364Z,8.77
2019-01-04T08:54:04.392Z,8.23
2019-01-04T08:56:52.280Z,11.85
2019-01-04T08:59:26.110Z,11.97
2019-01-04T09:01:58.651Z,21.37
2019-01-04T09:04:39.703Z,13.05
2019-01-04T09:07:17.758Z,10.37
2019-01-04T09:09:48.778Z,9.50
2019-01-04T09:12:21.648Z,9.10
2019-01-04T09:18:06.620Z,9.63
2019-01-04T09:20:39.381Z,11.60
2019-01-04T09:23:39.091Z,7.97
2019-01-04T09:26:03.286Z,9.13
2019-01-04T09:28:35.427Z,8.53
2019-01-04T09:31:09.566Z,9.97
2019-01-04T09:33:43.831Z,7.83
2019-01-04T09:36:22.698Z,8.33
2019-01-04T09:39:03.284Z,10.43
2019-01-04T09:41:38.578Z,9.37
2019-01-04T09:44:14.284Z,7.80
2019-01-04T09:46:43.171Z,5.17
2019-01-04T09:49:13.328Z,8.40
2019-01-04T09:54:48.290Z,5.67
2019-01-04T09:57:23.593Z,5.73
2019-01-04T09:59:53.470Z,5.80
2019-01-04T10:02:29.923Z,4.50
2019-01-04T10:05:00.002Z,8.97
2019-01-04T10:07:37.077Z,10.85
2019-01-04T10:10:12.187Z,5.47
2019-01-04T10:12:58.002Z,4.43
2019-01-04T10:15:31.318Z,5.85
2019-01-04T10:18:09.583Z,5.93
2019-01-04T10:20:39.719Z,5.53
2019-01-04T10:23:24.247Z,5.07
2019-01-04T10:26:02.027Z,7.03
2019-01-04T10:28:29.824Z,5.72
2019-01-04T10:31:03.181Z,5.03
2019-01-04T10:33:32.592Z,4.22
2019-01-04T10:36:05.830Z,4.20
2019-01-04T10:38:39.286Z,11.10
2019-01-04T10:41:08.908Z,5.27
2019-01-04T10:43:50.107Z,5.95
2019-01-04T10:46:29.360Z,4.87
2019-01-04T10:48:58.047Z,5.47
2019-01-04T10:51:27.080Z,4.23
2019-01-04T10:53:55.721Z,5.63
2019-01-04T10:56:28.401Z,6.83
2019-01-04T10:59:13.642Z,6.73
2019-01-04T11:02:06.724Z,9.03
2019-01-04T11:04:36.233Z,9.30
2019-01-04T11:07:10.467Z,9.75
2019-01-04T11:09:49.818Z,6.13
2019-01-04T11:12:20.114Z,7.00
2019-01-04T11:14:52.173Z,10.82
2019-01-04T11:17:21.974Z,7.30
2019-01-04T11:19:50.995Z,9.63
2019-01-04T11:22:37.514Z,11.77
2019-01-04T11:25:08.085Z,8.67
2019-01-04T11:27:41.373Z,9.03
2019-01-04T11:30:13.714Z,8.20
2019-01-04T11:32:51.727Z,8.30
2019-01-04T11:35:25.522Z,8.97
2019-01-04T11:38:05.531Z,9.90
2019-01-04T11:40:52.730Z,11.37
2019-01-04T11:43:35.499Z,10.37
2019-01-04T11:46:12.126Z,8.20
2019-01-04T11:48:46.333Z,13.93
2019-01-04T11:51:22.787Z,8.93
2019-01-04T11:53:47.280Z,10.83
2019-01-04T11:56:20.502Z,9.87
2019-01-04T11:58:53.792Z,11.27
2019-01-04T12:01:25.584Z,11.33
2019-01-04T12:03:57.078Z,9.80
2019-01-04T12:06:29.077Z,11.50
2019-01-04T12:08:57.910Z,11.97
2019-01-04T12:11:32.024Z,12.93
2019-01-04T12:14:01.325Z,11.13
2019-01-04T12:16:31.288Z,13.43
2019-01-04T12:19:01.653Z,12.50
2019-01-04T12:21:34.826Z,13.63
2019-01-04T12:24:07.351Z,11.80
2019-01-04T12:26:38.879Z,12.80
2019-01-04T12:29:10.491Z,16.77
2019-01-04T12:31:41.077Z,17.73
2019-01-04T12:34:16.646Z,14.33
2019-01-04T12:36:43.773Z,17.97
2019-01-04T12:39:18.413Z,13.57
2019-01-04T12:41:49.042Z,25.10
2019-01-04T12:44:18.428Z,18.20
2019-01-04T12:46:50.550Z,20.63
2019-01-04T12:49:19.261Z,17.73
2019-01-04T12:51:49.461Z,15.73
2019-01-04T12:54:20.726Z,16.40
2019-01-04T12:56:51.542Z,18.57
2019-01-04T12:59:20.600Z,19.20
2019-01-04T13:01:52.561Z,18.37
2019-01-04T13:04:22.101Z,20.83
2019-01-04T13:06:56.324Z,19.13
2019-01-04T13:09:28.382Z,15.27
2019-01-04T13:12:07.120Z,19.67
2019-01-04T13:14:36.919Z,19.67
2019-01-04T13:17:07.077Z,20.23
2019-01-04T13:19:41.372Z,21.67
2019-01-04T13:22:14.343Z,18.80
2019-01-04T13:24:46.206Z,18.60
2019-01-04T13:27:24.804Z,18.27
2019-01-04T13:29:59.520Z,17.87
2019-01-04T13:32:29.899Z,19.43
2019-01-04T13:35:00.601Z,16.67
2019-01-04T13:37:31.569Z,18.73
2019-01-04T13:40:03.202Z,16.83
2019-01-04T13:42:34.221Z,21.27
2019-01-04T13:45:13.078Z,21.37
2019-01-04T13:47:48.068Z,18.60
2019-01-04T13:50:17.471Z,21.50
2019-01-04T13:52:49.539Z,23.07
2019-01-04T13:55:19.965Z,21.75
2019-01-04T13:57:50.216Z,23.33
2019-01-04T14:00:22.786Z,26.63
2019-01-04T14:02:54.104Z,28.25
2019-01-04T14:05:24.799Z,28.43
2019-01-04T14:07:57.935Z,35.83
2019-01-04T14:10:31.363Z,28.63
2019-01-04T14:13:09.095Z,30.10
2019-01-04T14:15:35.702Z,28.32
2019-01-04T14:18:07.310Z,30.77
2019-01-04T14:20:40.671Z,30.70
2019-01-04T14:23:18.208Z,28.87
2019-01-04T14:25:47.706Z,35.25
2019-01-04T14:28:18.442Z,34.05
2019-01-04T14:30:49.063Z,40.52
2019-01-04T14:33:18.718Z,41.92
2019-01-04T14:35:48.100Z,35.92
2019-01-04T14:38:20.096Z,40.20
2019-01-04T14:40:49.084Z,36.77
2019-01-04T14:43:18.397Z,29.25
2019-01-04T14:45:53.092Z,31.73
2019-01-04T14:48:26.660Z,28.33
2019-01-04T14:50:58.358Z,28.00
2019-01-04T14:53:37.613Z,27.57
2019-01-04T15:00:03.706Z,19.40
2019-01-04T15:02:39.132Z,20.90
2019-01-04T15:08:23.288Z,18.35
2019-01-04T15:11:23.547Z,20.40
2019-01-04T15:13:58.659Z,20.60
2019-01-04T15:17:09.446Z,20.70
2019-01-04T15:19:43.288Z,18.82
2019-01-04T15:22:42.943Z,21.45
2019-01-04T15:25:20.232Z,22.40
2019-01-04T15:40:28.326Z,27.07
2019-01-04T15:43:01.274Z,30.90
2019-01-04T15:51:40.654Z,29.40
2019-01-04T15:54:13.772Z,29.98
2019-01-04T15:59:56.420Z,26.95
2019-01-04T16:05:48.203Z,27.98
2019-01-04T16:09:11.250Z,26.82
2019-01-04T16:11:46.119Z,30.45
2019-01-04T16:14:51.750Z,27.48
2019-01-04T16:17:23.944Z,30.80
2019-01-04T16:20:17.187Z,30.50
2019-01-04T16:22:46.108Z,29.65
2019-01-04T16:25:49.299Z,25.00
2019-01-04T16:28:20.022Z,22.82
2019-01-04T16:31:35.256Z,22.50
2019-01-04T16:34:08.302Z,22.07
2019-01-04T16:37:14.317Z,21.10
2019-01-04T16:39:43.693Z,22.02
2019-01-04T16:45:34.252Z,23.87
2019-01-04T16:48:36.427Z,22.65
2019-01-04T16:51:05.268Z,23.10
2019-01-04T16:56:55.253Z,23.77
2019-01-04T17:18:22.428Z,22.22
2019-01-04T17:20:53.415Z,25.25
2019-01-04T17:24:09.315Z,24.47
2019-01-04T17:26:40.384Z,22.10
2019-01-04T17:32:30.099Z,23.38
2019-01-04T17:35:26.905Z,21.00
2019-01-04T17:37:55.641Z,22.80
2019-01-04T17:40:35.700Z,20.27
2019-01-04T17:46:32.403Z,22.95
2019-01-04T17:49:05.379Z,21.48
2019-01-04T17:52:11.537Z,21.23
2019-01-04T17:54:43.247Z,18.82
2019-01-04T17:57:52.211Z,17.98
2019-01-04T18:00:23.837Z,19.23
2019-01-04T18:03:25.119Z,16.20
2019-01-04T18:05:54.505Z,15.70
2019-01-04T18:08:31.696Z,17.70
2019-01-04T18:11:33.767Z,16.73
2019-01-04T18:14:03.322Z,14.60
2019-01-04T18:17:03.429Z,16.50
2019-01-04T18:19:34.123Z,16.97
2019-01-04T18:22:49.180Z,15.75
2019-01-04T18:25:21.166Z,14.47
2019-01-04T18:31:05.428Z,14.23
2019-01-04T18:33:35.349Z,16.35
2019-01-04T18:36:07.253Z,15.85
2019-01-04T18:38:40.163Z,16.10
2019-01-04T18:41:42.455Z,15.80
2019-01-04T18:44:19.121Z,16.42
2019-01-04T18:46:50.221Z,16.00
2019-01-04T18:50:07.446Z,16.67
2019-01-04T18:52:39.381Z,15.45
2019-01-04T18:55:48.058Z,15.65
2019-01-04T18:58:18.418Z,13.97
2019-01-04T19:01:18.375Z,14.55
2019-01-04T19:03:51.709Z,16.07
2019-01-04T19:06:46.579Z,15.13
2019-01-04T19:09:21.207Z,13.67
2019-01-04T19:12:33.294Z,14.93
2019-01-04T19:15:08.649Z,17.05
2019-01-04T19:24:16.164Z,17.32
2019-01-04T19:26:46.629Z,21.65
2019-01-04T19:29:46.222Z,18.70
2019-01-04T19:32:16.997Z,18.15
2019-01-04T19:35:40.176Z,18.80
2019-01-04T19:38:16.507Z,20.50
2019-01-04T19:41:21.376Z,20.68
2019-01-04T19:43:51.290Z,18.57
2019-01-04T19:46:24.796Z,18.92
2019-01-04T19:49:02.428Z,20.85
2019-01-04T19:51:34.798Z,21.77
2019-01-04T19:54:46.210Z,21.10
2019-01-04T19:57:14.780Z,21.10
2019-01-04T19:59:46.408Z,19.12
2019-01-04T20:02:58.334Z,18.98
2019-01-04T20:05:31.611Z,20.08
2019-01-04T20:11:24.693Z,17.23
2019-01-04T20:17:12.790Z,17.30
2019-01-04T20:20:20.194Z,19.75
2019-01-04T20:23:07.679Z,18.98
2019-01-04T20:28:39.551Z,17.05
2019-01-04T20:31:12.648Z,21.12
2019-01-04T20:33:52.184Z,15.70
2019-01-04T20:36:32.192Z,16.82
2019-01-04T20:39:50.106Z,15.43
2019-01-04T20:42:35.296Z,14.25
2019-01-04T20:45:08.435Z,13.93
2019-01-04T20:47:50.154Z,14.15
2019-01-04T20:50:24.364Z,14.83
2019-01-04T20:53:18.717Z,15.05
2019-01-04T20:55:58.926Z,13.85
2019-01-04T20:59:11.346Z,15.93
2019-01-04T21:02:01.289Z,13.70
2019-01-04T21:07:52.387Z,14.38
2019-01-04T21:13:34.417Z,14.05
2019-01-04T21:19:34.299Z,12.90
2019-01-04T21:22:06.104Z,13.18
2019-01-04T21:24:40.719Z,14.07
2019-01-04T21:27:14.982Z,11.63
2019-01-04T21:30:09.335Z,11.23
2019-01-04T21:33:02.731Z,10.20
2019-01-04T21:36:11.235Z,15.30
2019-01-04T21:38:53.389Z,14.23
2019-01-04T21:44:22.244Z,13.87
2019-01-04T21:50:15.157Z,14.20
2019-01-04T21:55:43.404Z,11.88
2019-01-04T22:01:14.423Z,14.53
2019-01-04T22:07:00.595Z,13.55
2019-01-04T22:10:11.920Z,11.22
2019-01-04T22:12:55.152Z,11.78
2019-01-04T22:16:01.380Z,11.40
2019-01-04T22:18:40.956Z,11.83
2019-01-04T22:24:00.228Z,12.18
2019-01-04T22:30:09.582Z,12.15
2019-01-04T22:32:46.214Z,13.50
2019-01-04T22:35:15.232Z,16.90
2019-01-04T22:41:19.851Z,14.58
2019-01-04T22:43:52.746Z,12.80
2019-01-04T22:46:50.101Z,13.72
2019-01-04T22:52:18.502Z,13.22
2019-01-04T22:58:03.222Z,14.10
2019-01-04T23:03:31.238Z,13.80
2019-01-04T23:09:11.704Z,12.98
2019-01-04T23:14:58.552Z,15.65
2019-01-04T23:17:32.787Z,13.60
2019-01-04T23:20:34.615Z,12.13
2019-01-04T23:23:05.498Z,13.90
2019-01-04T23:28:51.704Z,15.00
2019-01-04T23:31:28.443Z,13.45
2019-01-04T23:34:14.009Z,12.20
2019-01-04T23:36:45.905Z,13.10
2019-01-04T23:39:29.876Z,15.25
2019-01-04T23:42:13.226Z,15.68
2019-01-04T23:47:51.407Z,14.18
2019-01-04T23:53:32.441Z,13.72
2019-01-04T23:59:10.569Z,15.68
